createdAt,value
2018-01-21T10:02:10.165Z,4.87
2018-01-21T10:04:37.921Z,7.10
2018-01-21T10:07:04.976Z,2.13
2018-01-21T10:09:32.245Z,14.03
2018-01-21T10:11:59.184Z,3.03
2018-01-21T10:14:25.718Z,16.33
2018-01-21T10:16:54.161Z,3.03
2018-01-21T10:19:23.786Z,5.13
2018-01-21T10:21:51.665Z,6.70
2018-01-21T10:24:21.122Z,2.60
2018-01-21T10:26:50.075Z,2.67
2018-01-21T10:29:19.888Z,15.50
2018-01-21T10:31:49.555Z,2.43
2018-01-21T10:34:19.431Z,6.13
2018-01-21T10:36:50.829Z,5.03
2018-01-21T10:39:20.377Z,7.17
2018-01-21T10:41:51.938Z,8.33
2018-01-21T10:44:20.589Z,5.50
2018-01-21T10:46:50.784Z,6.50
2018-01-21T10:49:21.335Z,4.93
2018-01-21T10:51:50.815Z,7.00
2018-01-21T10:54:19.660Z,3.80
2018-01-21T10:56:49.638Z,4.73
2018-01-21T10:59:19.115Z,13.53
2018-01-21T11:01:51.203Z,8.23
2018-01-21T11:04:23.997Z,1.60
2018-01-21T11:06:51.082Z,1.57
2018-01-21T11:09:20.753Z,3.17
2018-01-21T11:11:53.077Z,11.10
2018-01-21T11:14:23.295Z,3.30
2018-01-21T11:16:52.417Z,2.20
2018-01-21T11:19:19.808Z,5.60
2018-01-21T11:21:47.916Z,4.73
2018-01-21T11:24:19.008Z,1.73
2018-01-21T11:26:47.414Z,5.00
2018-01-21T11:29:15.508Z,1.70
2018-01-21T11:31:43.270Z,6.80
2018-01-21T11:34:10.198Z,2.67
2018-01-21T11:36:37.316Z,2.90
2018-01-21T11:39:04.193Z,3.17
2018-01-21T11:41:30.764Z,3.67
2018-01-21T11:43:57.433Z,6.03
2018-01-21T11:46:24.384Z,4.37
2018-01-21T11:48:51.090Z,5.30
2018-01-21T11:51:18.390Z,2.63
2018-01-21T11:53:45.638Z,2.80
2018-01-21T11:56:13.071Z,4.70
2018-01-21T11:58:40.176Z,6.17
2018-01-21T12:01:07.536Z,3.17
2018-01-21T12:03:34.287Z,2.60
2018-01-21T12:06:01.892Z,4.97
2018-01-21T12:08:28.552Z,4.43
2018-01-21T12:10:55.490Z,5.90
2018-01-21T12:13:22.150Z,2.83
2018-01-21T12:15:48.970Z,5.30
2018-01-21T12:18:17.112Z,2.50
2018-01-21T12:20:45.182Z,2.50
2018-01-21T12:23:11.909Z,2.67
2018-01-21T12:25:38.482Z,2.50
2018-01-21T12:28:05.217Z,7.53
2018-01-21T12:30:31.833Z,2.40
2018-01-21T12:32:58.393Z,5.53
2018-01-21T12:35:24.929Z,4.50
2018-01-21T12:37:52.562Z,2.50
2018-01-21T12:41:18.398Z,2.17
2018-01-21T12:43:47.510Z,13.00
2018-01-21T12:46:16.483Z,2.40
2018-01-21T12:48:46.632Z,10.83
2018-01-21T12:51:15.555Z,3.60
2018-01-21T12:53:43.644Z,4.53
2018-01-21T12:56:15.671Z,12.63
2018-01-21T12:58:47.652Z,6.40
2018-01-21T13:01:15.716Z,21.63
2018-01-21T13:03:43.705Z,501.43
2018-01-21T13:06:11.209Z,407.37
2018-01-21T13:08:38.459Z,269.13
2018-01-21T13:11:05.032Z,244.23
2018-01-21T13:13:31.961Z,125.87
2018-01-21T13:15:58.520Z,111.73
2018-01-21T13:18:25.429Z,91.50
2018-01-21T13:20:53.766Z,85.10
2018-01-21T13:23:21.994Z,63.30
2018-01-21T13:25:49.877Z,61.57
2018-01-21T13:28:21.191Z,50.03
2018-01-21T13:30:49.880Z,43.77
2018-01-21T13:33:20.370Z,50.93
2018-01-21T13:35:53.150Z,56.67
2018-01-21T13:38:20.900Z,46.43
2018-01-21T13:40:48.837Z,38.60
2018-01-21T13:43:18.171Z,37.83
2018-01-21T13:45:49.533Z,46.10
2018-01-21T13:48:19.385Z,32.70
2018-01-21T13:50:48.606Z,39.17
2018-01-21T13:53:24.926Z,30.80
2018-01-21T13:55:52.997Z,35.73
2018-01-21T13:58:27.965Z,33.60
2018-01-21T14:00:55.266Z,27.53
2018-01-21T14:03:25.198Z,39.60
2018-01-21T14:05:53.267Z,27.47
2018-01-21T14:08:20.444Z,26.77
2018-01-21T14:10:50.070Z,30.53
2018-01-21T14:13:20.076Z,29.00
2018-01-21T14:15:51.614Z,33.07
2018-01-21T14:18:19.794Z,28.03
2018-01-21T14:20:49.621Z,20.80
2018-01-21T14:23:18.452Z,23.83
2018-01-21T14:25:47.856Z,24.63
2018-01-21T14:28:20.789Z,17.30
2018-01-21T14:30:49.220Z,29.10
2018-01-21T14:33:19.982Z,25.60
2018-01-21T14:35:49.565Z,15.83
2018-01-21T14:38:24.454Z,19.53
2018-01-21T14:40:52.096Z,18.60
2018-01-21T14:43:19.933Z,11.87
2018-01-21T14:45:49.075Z,18.50
2018-01-21T14:48:19.379Z,20.00
2018-01-21T14:50:47.199Z,19.83
2018-01-21T14:53:18.921Z,12.80
2018-01-21T14:55:48.696Z,14.83
2018-01-21T14:58:16.689Z,16.70
2018-01-21T15:00:49.052Z,11.50
2018-01-21T15:03:17.748Z,13.30
2018-01-21T15:05:50.637Z,22.40
2018-01-21T15:08:19.520Z,12.93
2018-01-21T15:10:51.704Z,16.70
2018-01-21T15:13:20.681Z,29.47
2018-01-21T15:15:48.389Z,15.73
2018-01-21T15:18:17.263Z,7.77
2018-01-21T15:20:49.649Z,10.47
2018-01-21T15:23:23.017Z,13.20
2018-01-21T15:26:02.237Z,6.90
2018-01-21T15:28:28.976Z,15.00
2018-01-21T15:30:55.577Z,17.43
2018-01-21T15:33:22.745Z,16.53
2018-01-21T15:35:49.712Z,8.57
2018-01-21T15:38:18.469Z,7.00
2018-01-21T15:40:50.088Z,8.77
2018-01-21T15:43:19.724Z,11.20
2018-01-21T15:45:48.882Z,12.37
2018-01-21T15:48:21.924Z,8.67
2018-01-21T15:50:59.876Z,9.17
2018-01-21T15:53:30.485Z,8.20
2018-01-21T15:55:57.058Z,8.97
2018-01-21T15:58:24.456Z,4.33
2018-01-21T16:00:52.583Z,13.77
2018-01-21T16:03:33.521Z,6.27
2018-01-21T16:06:07.745Z,11.37
2018-01-21T16:08:34.472Z,20.73
